sensor_id;sensor_type;location;lat;lon;timestamp;pressure;altitude;pressure_sealevel;temperature;humidity
50380;BME280;37474;59.468;18.040;2023-06-14T00:00:07;102088.66;;;9.32;70.53
50380;BME280;37474;59.468;18.040;2023-06-14T00:02:35;102078.81;;;9.46;70.97
50380;BME280;37474;59.468;18.040;2023-06-14T00:05:04;102080.03;;;9.65;70.90
50380;BME280;37474;59.468;18.040;2023-06-14T00:07:36;102052.88;;;9.47;70.31
50380;BME280;37474;59.468;18.040;2023-06-14T00:10:06;102076.03;;;9.53;70.58
50380;BME280;37474;59.468;18.040;2023-06-14T00:12:34;102087.50;;;9.43;70.95
50380;BME280;37474;59.468;18.040;2023-06-14T00:15:03;102076.19;;;9.47;71.14
50380;BME280;37474;59.468;18.040;2023-06-14T00:17:33;102079.28;;;9.62;71.57
50380;BME280;37474;59.468;18.040;2023-06-14T00:20:05;102077.50;;;9.64;71.63
50380;BME280;37474;59.468;18.040;2023-06-14T00:22:34;102081.81;;;9.63;71.58
50380;BME280;37474;59.468;18.040;2023-06-14T00:25:04;102086.69;;;9.75;71.35
50380;BME280;37474;59.468;18.040;2023-06-14T00:27:53;102082.31;;;9.77;71.11
50380;BME280;37474;59.468;18.040;2023-06-14T00:30:21;102082.28;;;9.79;70.38
50380;BME280;37474;59.468;18.040;2023-06-14T00:32:59;102088.25;;;9.81;71.52
50380;BME280;37474;59.468;18.040;2023-06-14T00:35:27;102072.81;;;9.78;71.52
50380;BME280;37474;59.468;18.040;2023-06-14T00:37:55;102083.44;;;10.00;70.73
50380;BME280;37474;59.468;18.040;2023-06-14T00:40:23;102082.09;;;10.18;69.37
50380;BME280;37474;59.468;18.040;2023-06-14T00:42:51;102079.94;;;10.34;68.36
50380;BME280;37474;59.468;18.040;2023-06-14T00:45:19;102079.28;;;10.25;70.33
50380;BME280;37474;59.468;18.040;2023-06-14T00:47:49;102078.28;;;10.00;73.20
50380;BME280;37474;59.468;18.040;2023-06-14T00:50:20;102085.56;;;9.86;73.27
50380;BME280;37474;59.468;18.040;2023-06-14T00:52:50;102083.19;;;9.78;73.42
50380;BME280;37474;59.468;18.040;2023-06-14T00:55:18;102097.44;;;9.60;73.46
50380;BME280;37474;59.468;18.040;2023-06-14T00:57:46;102093.16;;;9.59;73.66
50380;BME280;37474;59.468;18.040;2023-06-14T01:00:15;102088.03;;;9.90;73.00
50380;BME280;37474;59.468;18.040;2023-06-14T01:02:43;102088.47;;;9.73;73.58
50380;BME280;37474;59.468;18.040;2023-06-14T01:05:11;102093.41;;;9.50;74.85
50380;BME280;37474;59.468;18.040;2023-06-14T01:08:09;102100.56;;;9.39;75.62
50380;BME280;37474;59.468;18.040;2023-06-14T01:10:47;102093.56;;;9.44;76.09
50380;BME280;37474;59.468;18.040;2023-06-14T01:13:21;102091.28;;;9.64;75.45
50380;BME280;37474;59.468;18.040;2023-06-14T01:15:50;102092.28;;;9.59;75.91
50380;BME280;37474;59.468;18.040;2023-06-14T01:18:19;102094.31;;;9.47;78.12
50380;BME280;37474;59.468;18.040;2023-06-14T01:20:47;102093.91;;;9.29;77.85
50380;BME280;37474;59.468;18.040;2023-06-14T01:23:19;102094.81;;;9.26;77.42
50380;BME280;37474;59.468;18.040;2023-06-14T01:25:48;102093.03;;;9.30;77.16
50380;BME280;37474;59.468;18.040;2023-06-14T01:28:21;102095.94;;;9.16;77.56
50380;BME280;37474;59.468;18.040;2023-06-14T01:30:51;102089.50;;;9.32;77.40
50380;BME280;37474;59.468;18.040;2023-06-14T01:33:20;102094.41;;;9.43;76.66
50380;BME280;37474;59.468;18.040;2023-06-14T01:35:51;102089.75;;;9.57;77.08
50380;BME280;37474;59.468;18.040;2023-06-14T01:38:23;102088.97;;;9.53;76.77
50380;BME280;37474;59.468;18.040;2023-06-14T01:40:54;102060.53;;;9.18;78.29
50380;BME280;37474;59.468;18.040;2023-06-14T01:43:24;102042.47;;;9.16;78.29
50380;BME280;37474;59.468;18.040;2023-06-14T01:45:57;102090.06;;;9.45;78.01
50380;BME280;37474;59.468;18.040;2023-06-14T01:48:26;102086.75;;;9.40;77.91
50380;BME280;37474;59.468;18.040;2023-06-14T01:50:54;102096.03;;;9.47;78.84
50380;BME280;37474;59.468;18.040;2023-06-14T01:53:24;102085.31;;;9.62;78.89
50380;BME280;37474;59.468;18.040;2023-06-14T01:55:52;102092.28;;;9.59;79.16
50380;BME280;37474;59.468;18.040;2023-06-14T01:58:21;102090.97;;;9.76;78.64
50380;BME280;37474;59.468;18.040;2023-06-14T02:00:50;102089.63;;;9.62;79.17
50380;BME280;37474;59.468;18.040;2023-06-14T02:03:22;102087.22;;;9.56;78.70
50380;BME280;37474;59.468;18.040;2023-06-14T02:05:52;102096.47;;;9.64;79.00
50380;BME280;37474;59.468;18.040;2023-06-14T02:08:21;102089.09;;;9.82;80.02
50380;BME280;37474;59.468;18.040;2023-06-14T02:10:51;102092.59;;;9.81;79.64
50380;BME280;37474;59.468;18.040;2023-06-14T02:13:20;102092.06;;;9.68;80.99
50380;BME280;37474;59.468;18.040;2023-06-14T02:15:48;102058.84;;;9.51;80.50
50380;BME280;37474;59.468;18.040;2023-06-14T02:18:20;102095.00;;;10.19;76.75
50380;BME280;37474;59.468;18.040;2023-06-14T02:20:48;102089.84;;;10.18;76.31
50380;BME280;37474;59.468;18.040;2023-06-14T02:23:16;102086.59;;;10.42;75.14
50380;BME280;37474;59.468;18.040;2023-06-14T02:25:44;102087.16;;;10.52;74.95
50380;BME280;37474;59.468;18.040;2023-06-14T02:28:18;102084.31;;;10.61;74.48
50380;BME280;37474;59.468;18.040;2023-06-14T02:30:47;102056.50;;;10.37;75.58
50380;BME280;37474;59.468;18.040;2023-06-14T02:33:15;102083.50;;;10.29;76.72
50380;BME280;37474;59.468;18.040;2023-06-14T02:35:46;102087.34;;;10.15;77.47
50380;BME280;37474;59.468;18.040;2023-06-14T02:38:14;102089.09;;;10.14;78.03
50380;BME280;37474;59.468;18.040;2023-06-14T02:40:45;102090.78;;;10.15;78.56
50380;BME280;37474;59.468;18.040;2023-06-14T02:43:15;102090.88;;;10.12;79.40
50380;BME280;37474;59.468;18.040;2023-06-14T02:45:44;102091.66;;;10.14;78.98
50380;BME280;37474;59.468;18.040;2023-06-14T02:48:12;102092.44;;;10.18;78.80
50380;BME280;37474;59.468;18.040;2023-06-14T02:50:40;102089.22;;;10.41;78.46
50380;BME280;37474;59.468;18.040;2023-06-14T02:53:09;102094.16;;;10.50;78.58
50380;BME280;37474;59.468;18.040;2023-06-14T02:55:37;102095.75;;;10.54;79.64
50380;BME280;37474;59.468;18.040;2023-06-14T02:58:07;102090.91;;;10.71;78.37
50380;BME280;37474;59.468;18.040;2023-06-14T03:00:39;102087.09;;;10.83;76.78
50380;BME280;37474;59.468;18.040;2023-06-14T03:03:08;102091.66;;;11.03;75.97
50380;BME280;37474;59.468;18.040;2023-06-14T03:05:41;102098.19;;;11.16;76.62
50380;BME280;37474;59.468;18.040;2023-06-14T03:08:13;102098.25;;;11.13;76.98
50380;BME280;37474;59.468;18.040;2023-06-14T03:10:43;102100.84;;;11.13;77.90
50380;BME280;37474;59.468;18.040;2023-06-14T03:13:11;102095.47;;;11.19;77.53
50380;BME280;37474;59.468;18.040;2023-06-14T03:15:41;102095.91;;;11.32;76.64
50380;BME280;37474;59.468;18.040;2023-06-14T03:18:11;102100.25;;;11.58;77.81
50380;BME280;37474;59.468;18.040;2023-06-14T03:20:41;102099.81;;;11.70;77.38
50380;BME280;37474;59.468;18.040;2023-06-14T03:23:12;102094.66;;;11.95;74.41
50380;BME280;37474;59.468;18.040;2023-06-14T03:25:40;102107.69;;;12.19;72.78
50380;BME280;37474;59.468;18.040;2023-06-14T03:28:09;102094.84;;;12.37;73.04
50380;BME280;37474;59.468;18.040;2023-06-14T03:30:37;102102.41;;;12.67;71.43
50380;BME280;37474;59.468;18.040;2023-06-14T03:33:06;102083.38;;;12.88;71.51
50380;BME280;37474;59.468;18.040;2023-06-14T03:35:35;102101.81;;;13.04;70.29
50380;BME280;37474;59.468;18.040;2023-06-14T03:38:03;102101.59;;;12.88;71.38
50380;BME280;37474;59.468;18.040;2023-06-14T03:40:31;102097.91;;;12.71;71.70
50380;BME280;37474;59.468;18.040;2023-06-14T03:43:00;102103.53;;;12.83;72.13
50380;BME280;37474;59.468;18.040;2023-06-14T03:45:28;102098.78;;;13.15;71.11
50380;BME280;37474;59.468;18.040;2023-06-14T03:47:56;102093.66;;;13.56;69.33
50380;BME280;37474;59.468;18.040;2023-06-14T03:50:29;102101.34;;;13.79;69.02
50380;BME280;37474;59.468;18.040;2023-06-14T03:52:59;102096.16;;;13.98;71.11
50380;BME280;37474;59.468;18.040;2023-06-14T03:55:27;102098.53;;;13.84;70.53
50380;BME280;37474;59.468;18.040;2023-06-14T03:58:00;102101.72;;;13.90;71.08
50380;BME280;37474;59.468;18.040;2023-06-14T04:00:29;102106.25;;;13.66;71.71
50380;BME280;37474;59.468;18.040;2023-06-14T04:02:57;102107.66;;;13.53;73.77
50380;BME280;37474;59.468;18.040;2023-06-14T04:05:25;102062.91;;;13.23;74.02
50380;BME280;37474;59.468;18.040;2023-06-14T04:07:55;102108.22;;;13.60;75.45
50380;BME280;37474;59.468;18.040;2023-06-14T04:10:23;102107.84;;;13.48;75.59
50380;BME280;37474;59.468;18.040;2023-06-14T04:12:51;102108.00;;;13.66;75.75
50380;BME280;37474;59.468;18.040;2023-06-14T04:15:19;102104.06;;;13.96;74.93
50380;BME280;37474;59.468;18.040;2023-06-14T04:17:48;102101.47;;;14.15;74.01
50380;BME280;37474;59.468;18.040;2023-06-14T04:20:16;102104.69;;;14.41;73.57
50380;BME280;37474;59.468;18.040;2023-06-14T04:22:44;102102.44;;;14.71;70.17
50380;BME280;37474;59.468;18.040;2023-06-14T04:25:14;102101.63;;;15.07;66.73
50380;BME280;37474;59.468;18.040;2023-06-14T04:27:48;102098.41;;;15.53;65.60
50380;BME280;37474;59.468;18.040;2023-06-14T04:30:16;102106.56;;;15.82;65.53
50380;BME280;37474;59.468;18.040;2023-06-14T04:32:46;102097.50;;;16.22;64.30
50380;BME280;37474;59.468;18.040;2023-06-14T04:35:14;102100.13;;;16.54;61.42
50380;BME280;37474;59.468;18.040;2023-06-14T04:37:43;102086.03;;;16.56;62.53
50380;BME280;37474;59.468;18.040;2023-06-14T04:40:13;102094.59;;;16.76;61.08
50380;BME280;37474;59.468;18.040;2023-06-14T04:42:41;102070.41;;;16.39;61.94
50380;BME280;37474;59.468;18.040;2023-06-14T04:45:11;102089.53;;;16.73;61.54
50380;BME280;37474;59.468;18.040;2023-06-14T04:47:42;102066.19;;;16.68;61.93
50380;BME280;37474;59.468;18.040;2023-06-14T04:50:10;102090.75;;;16.97;62.26
50380;BME280;37474;59.468;18.040;2023-06-14T04:52:39;102086.53;;;17.10;61.14
50380;BME280;37474;59.468;18.040;2023-06-14T04:55:08;102087.59;;;17.22;62.26
50380;BME280;37474;59.468;18.040;2023-06-14T04:57:38;102077.47;;;17.16;61.12
50380;BME280;37474;59.468;18.040;2023-06-14T05:00:09;102093.00;;;17.49;61.08
50380;BME280;37474;59.468;18.040;2023-06-14T05:02:38;102091.19;;;17.35;58.11
50380;BME280;37474;59.468;18.040;2023-06-14T05:05:07;102091.91;;;17.67;61.58
50380;BME280;37474;59.468;18.040;2023-06-14T05:07:36;102101.63;;;17.51;59.70
50380;BME280;37474;59.468;18.040;2023-06-14T05:10:08;102100.69;;;17.52;62.08
50380;BME280;37474;59.468;18.040;2023-06-14T05:12:38;102091.03;;;17.97;61.56
50380;BME280;37474;59.468;18.040;2023-06-14T05:15:07;102095.63;;;17.93;60.59
50380;BME280;37474;59.468;18.040;2023-06-14T05:17:37;102091.41;;;18.19;61.83
50380;BME280;37474;59.468;18.040;2023-06-14T05:20:07;102096.66;;;18.19;59.16
50380;BME280;37474;59.468;18.040;2023-06-14T05:22:37;102097.97;;;18.27;57.85
50380;BME280;37474;59.468;18.040;2023-06-14T05:25:05;102098.25;;;18.22;58.23
50380;BME280;37474;59.468;18.040;2023-06-14T05:27:33;102100.50;;;18.14;59.82
50380;BME280;37474;59.468;18.040;2023-06-14T05:30:06;102092.91;;;18.24;58.11
50380;BME280;37474;59.468;18.040;2023-06-14T05:32:35;102095.28;;;18.55;55.84
50380;BME280;37474;59.468;18.040;2023-06-14T05:35:03;102092.47;;;18.72;53.83
50380;BME280;37474;59.468;18.040;2023-06-14T05:37:32;102097.16;;;18.67;52.84
50380;BME280;37474;59.468;18.040;2023-06-14T05:40:00;102091.81;;;18.96;52.13
50380;BME280;37474;59.468;18.040;2023-06-14T05:42:30;102096.53;;;18.91;52.81
50380;BME280;37474;59.468;18.040;2023-06-14T05:44:58;102099.28;;;19.02;49.80
50380;BME280;37474;59.468;18.040;2023-06-14T05:47:28;102103.13;;;19.11;52.60
50380;BME280;37474;59.468;18.040;2023-06-14T05:49:56;102098.28;;;19.05;53.95
50380;BME280;37474;59.468;18.040;2023-06-14T05:52:24;102105.13;;;18.93;54.56
50380;BME280;37474;59.468;18.040;2023-06-14T05:54:53;102101.81;;;19.04;55.48
50380;BME280;37474;59.468;18.040;2023-06-14T05:57:21;102103.97;;;19.11;55.16
50380;BME280;37474;59.468;18.040;2023-06-14T05:59:49;102106.38;;;18.87;54.78
50380;BME280;37474;59.468;18.040;2023-06-14T06:02:18;102107.88;;;19.18;53.66
50380;BME280;37474;59.468;18.040;2023-06-14T06:04:48;102109.50;;;19.34;55.36
50380;BME280;37474;59.468;18.040;2023-06-14T06:07:16;102114.09;;;19.30;54.17
50380;BME280;37474;59.468;18.040;2023-06-14T06:09:44;102090.53;;;19.16;50.73
50380;BME280;37474;59.468;18.040;2023-06-14T06:12:12;102109.22;;;19.76;50.48
50380;BME280;37474;59.468;18.040;2023-06-14T06:14:40;102093.44;;;20.02;51.80
50380;BME280;37474;59.468;18.040;2023-06-14T06:17:08;102110.66;;;20.31;49.52
50380;BME280;37474;59.468;18.040;2023-06-14T06:19:36;102110.31;;;20.62;49.06
50380;BME280;37474;59.468;18.040;2023-06-14T06:22:08;102115.88;;;20.70;48.69
50380;BME280;37474;59.468;18.040;2023-06-14T06:24:36;102111.63;;;20.80;48.49
50380;BME280;37474;59.468;18.040;2023-06-14T06:27:05;102112.94;;;21.09;46.91
50380;BME280;37474;59.468;18.040;2023-06-14T06:29:35;102087.78;;;21.41;45.84
50380;BME280;37474;59.468;18.040;2023-06-14T06:32:04;102107.47;;;20.89;46.31
50380;BME280;37474;59.468;18.040;2023-06-14T06:34:32;102118.06;;;21.00;45.72
50380;BME280;37474;59.468;18.040;2023-06-14T06:37:00;102119.94;;;21.46;44.85
50380;BME280;37474;59.468;18.040;2023-06-14T06:39:29;102121.66;;;21.58;45.27
50380;BME280;37474;59.468;18.040;2023-06-14T06:41:57;102123.09;;;21.62;45.40
50380;BME280;37474;59.468;18.040;2023-06-14T06:44:25;102116.47;;;21.45;46.01
50380;BME280;37474;59.468;18.040;2023-06-14T06:46:53;102126.72;;;21.72;46.18
50380;BME280;37474;59.468;18.040;2023-06-14T06:49:21;102117.81;;;21.62;46.64
50380;BME280;37474;59.468;18.040;2023-06-14T06:52:02;102115.72;;;22.01;46.24
50380;BME280;37474;59.468;18.040;2023-06-14T06:54:32;102117.75;;;22.42;44.39
50380;BME280;37474;59.468;18.040;2023-06-14T06:57:00;102119.88;;;22.59;43.69
50380;BME280;37474;59.468;18.040;2023-06-14T06:59:29;102124.09;;;22.62;43.24
50380;BME280;37474;59.468;18.040;2023-06-14T07:01:57;102124.47;;;22.46;43.60
50380;BME280;37474;59.468;18.040;2023-06-14T07:04:25;102127.03;;;22.14;43.52
50380;BME280;37474;59.468;18.040;2023-06-14T07:06:53;102127.00;;;22.03;44.16
50380;BME280;37474;59.468;18.040;2023-06-14T07:09:22;102126.72;;;22.73;43.08
50380;BME280;37474;59.468;18.040;2023-06-14T07:11:52;102126.88;;;23.04;43.78
50380;BME280;37474;59.468;18.040;2023-06-14T07:14:20;102118.78;;;23.37;42.94
50380;BME280;37474;59.468;18.040;2023-06-14T07:16:49;102124.47;;;23.95;41.02
50380;BME280;37474;59.468;18.040;2023-06-14T07:19:18;102134.53;;;24.02;40.82
50380;BME280;37474;59.468;18.040;2023-06-14T07:21:46;102136.16;;;24.54;42.21
50380;BME280;37474;59.468;18.040;2023-06-14T07:24:15;102131.97;;;24.61;38.69
50380;BME280;37474;59.468;18.040;2023-06-14T07:26:43;102128.84;;;24.37;39.42
50380;BME280;37474;59.468;18.040;2023-06-14T07:29:14;102126.28;;;23.53;39.91
50380;BME280;37474;59.468;18.040;2023-06-14T07:31:43;102132.69;;;24.23;38.98
50380;BME280;37474;59.468;18.040;2023-06-14T07:34:11;102128.72;;;24.48;38.38
50380;BME280;37474;59.468;18.040;2023-06-14T07:36:39;102121.25;;;24.72;37.58
50380;BME280;37474;59.468;18.040;2023-06-14T07:39:12;102127.66;;;24.60;39.66
50380;BME280;37474;59.468;18.040;2023-06-14T07:41:41;102128.50;;;24.70;38.44
50380;BME280;37474;59.468;18.040;2023-06-14T07:44:09;102122.47;;;24.49;37.47
50380;BME280;37474;59.468;18.040;2023-06-14T07:46:38;102120.66;;;24.59;38.16
50380;BME280;37474;59.468;18.040;2023-06-14T07:49:07;102112.88;;;24.87;37.95
50380;BME280;37474;59.468;18.040;2023-06-14T07:51:35;102112.06;;;24.77;37.18
50380;BME280;37474;59.468;18.040;2023-06-14T07:54:04;102120.59;;;24.09;37.07
50380;BME280;37474;59.468;18.040;2023-06-14T07:56:33;102108.53;;;24.66;38.45
50380;BME280;37474;59.468;18.040;2023-06-14T07:59:02;102108.28;;;25.37;36.39
50380;BME280;37474;59.468;18.040;2023-06-14T08:01:30;102103.44;;;25.89;34.89
50380;BME280;37474;59.468;18.040;2023-06-14T08:03:59;102100.88;;;25.31;36.67
50380;BME280;37474;59.468;18.040;2023-06-14T08:06:28;102097.97;;;25.24;35.93
50380;BME280;37474;59.468;18.040;2023-06-14T08:08:57;102106.00;;;24.65;37.46
50380;BME280;37474;59.468;18.040;2023-06-14T08:11:25;102113.13;;;24.55;35.37
50380;BME280;37474;59.468;18.040;2023-06-14T08:13:56;102102.84;;;25.00;35.03
50380;BME280;37474;59.468;18.040;2023-06-14T08:16:24;102108.84;;;25.02;36.25
50380;BME280;37474;59.468;18.040;2023-06-14T08:18:52;102103.94;;;25.46;34.61
50380;BME280;37474;59.468;18.040;2023-06-14T08:21:22;102099.59;;;26.01;33.38
50380;BME280;37474;59.468;18.040;2023-06-14T08:23:50;102107.06;;;25.12;34.87
50380;BME280;37474;59.468;18.040;2023-06-14T08:26:20;102104.81;;;25.08;35.87
50380;BME280;37474;59.468;18.040;2023-06-14T08:28:48;102099.84;;;25.61;34.76
50380;BME280;37474;59.468;18.040;2023-06-14T08:31:16;102102.75;;;25.68;33.99
50380;BME280;37474;59.468;18.040;2023-06-14T08:33:44;102094.91;;;25.10;34.83
50380;BME280;37474;59.468;18.040;2023-06-14T08:36:13;102106.75;;;25.35;34.44
50380;BME280;37474;59.468;18.040;2023-06-14T08:38:42;102104.41;;;25.22;35.33
50380;BME280;37474;59.468;18.040;2023-06-14T08:41:11;102103.84;;;25.28;34.71
50380;BME280;37474;59.468;18.040;2023-06-14T08:43:41;102109.28;;;25.26;34.03
50380;BME280;37474;59.468;18.040;2023-06-14T08:46:09;102107.66;;;25.82;32.66
50380;BME280;37474;59.468;18.040;2023-06-14T08:48:39;102101.03;;;25.96;31.85
50380;BME280;37474;59.468;18.040;2023-06-14T08:51:10;102101.19;;;26.22;31.99
50380;BME280;37474;59.468;18.040;2023-06-14T08:53:41;102106.03;;;26.54;31.73
50380;BME280;37474;59.468;18.040;2023-06-14T08:56:12;102104.94;;;25.92;31.78
50380;BME280;37474;59.468;18.040;2023-06-14T08:58:43;102100.88;;;26.25;32.44
50380;BME280;37474;59.468;18.040;2023-06-14T09:01:12;102109.63;;;26.35;31.76
50380;BME280;37474;59.468;18.040;2023-06-14T09:03:41;102109.94;;;26.32;31.34
50380;BME280;37474;59.468;18.040;2023-06-14T09:06:09;102100.13;;;25.58;31.59
50380;BME280;37474;59.468;18.040;2023-06-14T09:08:44;102090.75;;;26.11;30.99
50380;BME280;37474;59.468;18.040;2023-06-14T09:11:13;102096.13;;;27.09;30.99
50380;BME280;37474;59.468;18.040;2023-06-14T09:13:42;102098.31;;;26.78;31.31
50380;BME280;37474;59.468;18.040;2023-06-14T09:16:10;102097.53;;;26.50;31.28
50380;BME280;37474;59.468;18.040;2023-06-14T09:18:40;102075.16;;;26.71;32.13
50380;BME280;37474;59.468;18.040;2023-06-14T09:21:11;102091.19;;;26.61;30.61
50380;BME280;37474;59.468;18.040;2023-06-14T09:23:40;102099.69;;;26.82;30.74
50380;BME280;37474;59.468;18.040;2023-06-14T09:26:11;102092.78;;;26.90;29.44
50380;BME280;37474;59.468;18.040;2023-06-14T09:28:43;102092.84;;;26.80;29.85
50380;BME280;37474;59.468;18.040;2023-06-14T09:31:16;102091.50;;;26.94;30.01
50380;BME280;37474;59.468;18.040;2023-06-14T09:33:45;102090.56;;;26.67;29.79
50380;BME280;37474;59.468;18.040;2023-06-14T09:36:15;102101.31;;;26.93;29.25
50380;BME280;37474;59.468;18.040;2023-06-14T09:38:52;102092.84;;;26.62;29.21
50380;BME280;37474;59.468;18.040;2023-06-14T09:41:30;102096.06;;;26.66;29.96
50380;BME280;37474;59.468;18.040;2023-06-14T09:44:00;102097.19;;;26.99;30.38
50380;BME280;37474;59.468;18.040;2023-06-14T09:46:35;102099.09;;;27.50;27.84
50380;BME280;37474;59.468;18.040;2023-06-14T09:49:04;102089.19;;;26.45;28.63
50380;BME280;37474;59.468;18.040;2023-06-14T09:51:33;102098.31;;;27.14;27.71
50380;BME280;37474;59.468;18.040;2023-06-14T09:54:03;102087.09;;;28.06;27.38
50380;BME280;37474;59.468;18.040;2023-06-14T09:56:35;102080.41;;;28.02;27.10
50380;BME280;37474;59.468;18.040;2023-06-14T09:59:05;102097.75;;;27.72;28.95
50380;BME280;37474;59.468;18.040;2023-06-14T10:01:36;102081.84;;;27.62;29.62
50380;BME280;37474;59.468;18.040;2023-06-14T10:04:10;102097.81;;;27.54;28.95
50380;BME280;37474;59.468;18.040;2023-06-14T10:06:41;102081.38;;;27.93;29.60
50380;BME280;37474;59.468;18.040;2023-06-14T10:09:11;102095.09;;;28.65;28.73
50380;BME280;37474;59.468;18.040;2023-06-14T10:11:42;102089.66;;;29.24;27.68
50380;BME280;37474;59.468;18.040;2023-06-14T10:14:12;102097.72;;;28.40;28.24
50380;BME280;37474;59.468;18.040;2023-06-14T10:16:47;102086.91;;;28.08;28.48
50380;BME280;37474;59.468;18.040;2023-06-14T10:19:20;102090.97;;;27.78;28.84
50380;BME280;37474;59.468;18.040;2023-06-14T10:21:55;102092.41;;;27.46;29.23
50380;BME280;37474;59.468;18.040;2023-06-14T10:24:29;102097.69;;;27.02;29.46
50380;BME280;37474;59.468;18.040;2023-06-14T10:27:00;102093.06;;;26.69;30.05
50380;BME280;37474;59.468;18.040;2023-06-14T10:29:29;102097.09;;;26.73;30.69
50380;BME280;37474;59.468;18.040;2023-06-14T10:32:00;102094.50;;;27.60;29.20
50380;BME280;37474;59.468;18.040;2023-06-14T10:34:33;102087.91;;;27.21;29.11
50380;BME280;37474;59.468;18.040;2023-06-14T10:37:05;102089.97;;;27.27;28.80
50380;BME280;37474;59.468;18.040;2023-06-14T10:39:39;102090.66;;;27.37;29.52
50380;BME280;37474;59.468;18.040;2023-06-14T10:42:09;102091.59;;;27.72;28.95
50380;BME280;37474;59.468;18.040;2023-06-14T10:44:39;102091.13;;;27.76;30.18
50380;BME280;37474;59.468;18.040;2023-06-14T10:47:20;102092.28;;;28.16;28.58
50380;BME280;37474;59.468;18.040;2023-06-14T10:49:51;102079.31;;;28.29;28.75
50380;BME280;37474;59.468;18.040;2023-06-14T10:52:25;102090.25;;;28.52;27.89
50380;BME280;37474;59.468;18.040;2023-06-14T10:54:59;102093.91;;;28.59;28.22
50380;BME280;37474;59.468;18.040;2023-06-14T10:57:28;102084.75;;;27.43;29.20
50380;BME280;37474;59.468;18.040;2023-06-14T11:00:09;102083.44;;;27.73;29.58
50380;BME280;37474;59.468;18.040;2023-06-14T11:05:51;102085.25;;;28.49;27.86
50380;BME280;37474;59.468;18.040;2023-06-14T11:11:43;102077.28;;;28.74;27.46
50380;BME280;37474;59.468;18.040;2023-06-14T11:14:13;102073.75;;;28.81;27.31
50380;BME280;37474;59.468;18.040;2023-06-14T11:16:41;102078.78;;;28.60;26.97
50380;BME280;37474;59.468;18.040;2023-06-14T11:19:14;102081.56;;;28.00;28.68
50380;BME280;37474;59.468;18.040;2023-06-14T11:21:47;102080.38;;;27.94;28.12
50380;BME280;37474;59.468;18.040;2023-06-14T11:24:16;102072.94;;;28.06;28.56
50380;BME280;37474;59.468;18.040;2023-06-14T11:26:46;102071.03;;;27.98;27.89
50380;BME280;37474;59.468;18.040;2023-06-14T11:29:16;102086.78;;;27.75;28.12
50380;BME280;37474;59.468;18.040;2023-06-14T11:31:45;102079.47;;;28.20;27.61
50380;BME280;37474;59.468;18.040;2023-06-14T11:34:13;102066.97;;;27.26;29.29
50380;BME280;37474;59.468;18.040;2023-06-14T11:36:42;102069.63;;;27.26;29.11
50380;BME280;37474;59.468;18.040;2023-06-14T11:39:10;102084.66;;;27.87;28.91
50380;BME280;37474;59.468;18.040;2023-06-14T11:41:39;102078.31;;;27.80;28.19
50380;BME280;37474;59.468;18.040;2023-06-14T11:44:08;102043.56;;;27.63;27.82
50380;BME280;37474;59.468;18.040;2023-06-14T11:46:38;102075.88;;;27.69;28.27
50380;BME280;37474;59.468;18.040;2023-06-14T11:49:09;102070.66;;;27.59;28.35
50380;BME280;37474;59.468;18.040;2023-06-14T11:51:37;102070.94;;;27.74;28.34
50380;BME280;37474;59.468;18.040;2023-06-14T11:54:06;102058.06;;;28.03;28.02
50380;BME280;37474;59.468;18.040;2023-06-14T11:56:36;102052.50;;;28.31;27.48
50380;BME280;37474;59.468;18.040;2023-06-14T11:59:05;102062.06;;;27.99;27.33
50380;BME280;37474;59.468;18.040;2023-06-14T12:01:36;102052.69;;;27.87;27.42
50380;BME280;37474;59.468;18.040;2023-06-14T12:04:07;102073.66;;;27.30;28.43
50380;BME280;37474;59.468;18.040;2023-06-14T12:06:35;102068.28;;;26.86;28.82
50380;BME280;37474;59.468;18.040;2023-06-14T12:09:07;102065.59;;;27.04;28.67
50380;BME280;37474;59.468;18.040;2023-06-14T12:11:40;102061.63;;;26.82;29.22
50380;BME280;37474;59.468;18.040;2023-06-14T12:14:09;102064.94;;;26.84;28.99
50380;BME280;37474;59.468;18.040;2023-06-14T12:16:38;102062.59;;;26.99;28.57
50380;BME280;37474;59.468;18.040;2023-06-14T12:19:12;102055.72;;;26.96;28.77
50380;BME280;37474;59.468;18.040;2023-06-14T12:21:41;102065.47;;;27.23;28.75
50380;BME280;37474;59.468;18.040;2023-06-14T12:24:11;102061.22;;;26.95;28.20
50380;BME280;37474;59.468;18.040;2023-06-14T12:26:42;102052.28;;;27.04;28.60
50380;BME280;37474;59.468;18.040;2023-06-14T12:29:10;102063.69;;;27.32;27.51
50380;BME280;37474;59.468;18.040;2023-06-14T12:31:40;102062.69;;;27.33;27.28
50380;BME280;37474;59.468;18.040;2023-06-14T12:34:10;102060.81;;;27.51;27.88
50380;BME280;37474;59.468;18.040;2023-06-14T12:36:38;102038.41;;;27.36;27.66
50380;BME280;37474;59.468;18.040;2023-06-14T12:39:11;102061.09;;;27.48;27.63
50380;BME280;37474;59.468;18.040;2023-06-14T12:41:39;102063.88;;;27.64;27.99
50380;BME280;37474;59.468;18.040;2023-06-14T12:44:09;102051.19;;;27.58;27.38
50380;BME280;37474;59.468;18.040;2023-06-14T12:46:37;102053.53;;;27.61;27.62
50380;BME280;37474;59.468;18.040;2023-06-14T12:49:08;102056.16;;;27.53;27.77
50380;BME280;37474;59.468;18.040;2023-06-14T12:51:38;102052.56;;;27.36;28.05
50380;BME280;37474;59.468;18.040;2023-06-14T12:54:06;102052.94;;;27.16;28.12
50380;BME280;37474;59.468;18.040;2023-06-14T12:56:34;102057.94;;;27.01;28.47
50380;BME280;37474;59.468;18.040;2023-06-14T12:59:03;102049.91;;;26.75;28.72